臺北終端管制區 - 桃園掃描雷達席

METAR RCTP 051100Z 23008KT 9999 FEW020 31/24 Q1006 NOSIG RMK A2971=

站台狀態:Online
最後更新:2020-07-05 19:00:01